sensor_id;sensor_type;location;lat;lon;timestamp;temperature;humidity
33717;DHT22;20046;50.746;7.072;2023-09-19T00:02:01;15.60;99.90
33717;DHT22;20046;50.746;7.072;2023-09-19T00:04:31;15.60;99.90
33717;DHT22;20046;50.746;7.072;2023-09-19T00:06:58;15.60;99.90
33717;DHT22;20046;50.746;7.072;2023-09-19T00:09:24;15.60;99.90
33717;DHT22;20046;50.746;7.072;2023-09-19T00:11:53;15.60;99.90
33717;DHT22;20046;50.746;7.072;2023-09-19T00:14:19;15.70;99.90
33717;DHT22;20046;50.746;7.072;2023-09-19T00:16:45;15.70;99.90
33717;DHT22;20046;50.746;7.072;2023-09-19T00:19:11;15.60;99.90
33717;DHT22;20046;50.746;7.072;2023-09-19T00:21:37;15.60;99.90
33717;DHT22;20046;50.746;7.072;2023-09-19T00:24:04;15.60;99.90
33717;DHT22;20046;50.746;7.072;2023-09-19T00:26:32;15.60;99.90
33717;DHT22;20046;50.746;7.072;2023-09-19T00:28:58;15.60;99.90
33717;DHT22;20046;50.746;7.072;2023-09-19T00:31:30;15.70;99.90
33717;DHT22;20046;50.746;7.072;2023-09-19T00:33:56;15.70;99.90
33717;DHT22;20046;50.746;7.072;2023-09-19T00:36:27;15.70;99.90
33717;DHT22;20046;50.746;7.072;2023-09-19T00:38:54;15.70;99.90
33717;DHT22;20046;50.746;7.072;2023-09-19T00:41:20;15.60;99.90
33717;DHT22;20046;50.746;7.072;2023-09-19T00:43:46;15.50;99.90
33717;DHT22;20046;50.746;7.072;2023-09-19T00:46:17;15.50;99.90
33717;DHT22;20046;50.746;7.072;2023-09-19T00:48:42;15.50;99.90
33717;DHT22;20046;50.746;7.072;2023-09-19T00:51:12;15.50;99.90
33717;DHT22;20046;50.746;7.072;2023-09-19T00:53:39;15.40;99.90
33717;DHT22;20046;50.746;7.072;2023-09-19T00:56:05;15.40;99.90
33717;DHT22;20046;50.746;7.072;2023-09-19T00:58:32;15.40;99.90
33717;DHT22;20046;50.746;7.072;2023-09-19T01:00:59;15.40;99.90
33717;DHT22;20046;50.746;7.072;2023-09-19T01:03:24;15.40;99.90
33717;DHT22;20046;50.746;7.072;2023-09-19T01:05:50;15.40;99.90
33717;DHT22;20046;50.746;7.072;2023-09-19T01:08:16;15.40;99.90
33717;DHT22;20046;50.746;7.072;2023-09-19T01:10:52;15.40;99.90
33717;DHT22;20046;50.746;7.072;2023-09-19T01:19:07;15.50;99.90
33717;DHT22;20046;50.746;7.072;2023-09-19T01:24:43;15.60;99.90
33717;DHT22;20046;50.746;7.072;2023-09-19T01:30:20;15.60;99.90
33717;DHT22;20046;50.746;7.072;2023-09-19T01:32:49;15.70;99.90
33717;DHT22;20046;50.746;7.072;2023-09-19T01:35:18;15.70;99.90
33717;DHT22;20046;50.746;7.072;2023-09-19T01:37:44;15.70;99.90
33717;DHT22;20046;50.746;7.072;2023-09-19T01:40:12;15.80;99.90
33717;DHT22;20046;50.746;7.072;2023-09-19T01:43:18;15.80;99.90
33717;DHT22;20046;50.746;7.072;2023-09-19T01:46:04;15.80;99.90
33717;DHT22;20046;50.746;7.072;2023-09-19T01:51:21;15.70;99.90
33717;DHT22;20046;50.746;7.072;2023-09-19T01:53:53;15.80;99.90
33717;DHT22;20046;50.746;7.072;2023-09-19T01:57:14;15.80;99.90
33717;DHT22;20046;50.746;7.072;2023-09-19T01:59:26;15.80;99.90
33717;DHT22;20046;50.746;7.072;2023-09-19T02:01:54;15.90;99.90
33717;DHT22;20046;50.746;7.072;2023-09-19T02:04:20;15.80;99.90
33717;DHT22;20046;50.746;7.072;2023-09-19T02:06:46;15.90;99.90
33717;DHT22;20046;50.746;7.072;2023-09-19T02:09:13;15.90;99.90
33717;DHT22;20046;50.746;7.072;2023-09-19T02:11:40;15.90;99.90
33717;DHT22;20046;50.746;7.072;2023-09-19T02:14:06;15.90;99.90
33717;DHT22;20046;50.746;7.072;2023-09-19T02:16:36;15.80;99.90
33717;DHT22;20046;50.746;7.072;2023-09-19T02:19:02;15.80;99.90
33717;DHT22;20046;50.746;7.072;2023-09-19T02:21:31;15.80;99.90
33717;DHT22;20046;50.746;7.072;2023-09-19T02:23:57;15.80;99.90
33717;DHT22;20046;50.746;7.072;2023-09-19T02:26:24;15.70;99.90
33717;DHT22;20046;50.746;7.072;2023-09-19T02:28:49;15.70;99.90
33717;DHT22;20046;50.746;7.072;2023-09-19T02:31:15;15.60;99.90
33717;DHT22;20046;50.746;7.072;2023-09-19T02:33:42;15.60;99.90
33717;DHT22;20046;50.746;7.072;2023-09-19T02:36:07;15.50;99.90
33717;DHT22;20046;50.746;7.072;2023-09-19T02:38:34;15.50;99.90
33717;DHT22;20046;50.746;7.072;2023-09-19T02:40:59;15.50;99.90
33717;DHT22;20046;50.746;7.072;2023-09-19T02:43:25;15.40;99.90
33717;DHT22;20046;50.746;7.072;2023-09-19T02:45:51;15.40;99.90
33717;DHT22;20046;50.746;7.072;2023-09-19T02:48:20;15.30;99.90
33717;DHT22;20046;50.746;7.072;2023-09-19T02:50:49;15.30;99.90
33717;DHT22;20046;50.746;7.072;2023-09-19T02:53:14;15.20;99.90
33717;DHT22;20046;50.746;7.072;2023-09-19T02:55:40;15.20;99.90
33717;DHT22;20046;50.746;7.072;2023-09-19T02:58:07;15.20;99.90
33717;DHT22;20046;50.746;7.072;2023-09-19T03:00:40;15.10;99.90
33717;DHT22;20046;50.746;7.072;2023-09-19T03:03:07;15.10;99.90
33717;DHT22;20046;50.746;7.072;2023-09-19T03:05:34;15.00;99.90
33717;DHT22;20046;50.746;7.072;2023-09-19T03:07:59;15.00;99.90
33717;DHT22;20046;50.746;7.072;2023-09-19T03:10:28;15.00;99.90
33717;DHT22;20046;50.746;7.072;2023-09-19T03:12:54;15.00;99.90
33717;DHT22;20046;50.746;7.072;2023-09-19T03:15:20;14.90;99.90
33717;DHT22;20046;50.746;7.072;2023-09-19T03:17:48;14.90;99.90
33717;DHT22;20046;50.746;7.072;2023-09-19T03:20:15;14.80;99.90
33717;DHT22;20046;50.746;7.072;2023-09-19T03:22:43;14.80;99.90
33717;DHT22;20046;50.746;7.072;2023-09-19T03:25:09;14.70;99.90
33717;DHT22;20046;50.746;7.072;2023-09-19T03:27:37;14.60;99.90
33717;DHT22;20046;50.746;7.072;2023-09-19T03:30:04;14.60;99.90
33717;DHT22;20046;50.746;7.072;2023-09-19T03:32:37;14.50;99.90
33717;DHT22;20046;50.746;7.072;2023-09-19T03:35:08;14.40;99.90
33717;DHT22;20046;50.746;7.072;2023-09-19T03:37:36;14.40;99.90
33717;DHT22;20046;50.746;7.072;2023-09-19T03:40:02;14.40;99.90
33717;DHT22;20046;50.746;7.072;2023-09-19T03:42:31;14.40;99.90
33717;DHT22;20046;50.746;7.072;2023-09-19T03:44:56;14.40;99.90
33717;DHT22;20046;50.746;7.072;2023-09-19T03:47:22;14.50;99.90
33717;DHT22;20046;50.746;7.072;2023-09-19T03:49:48;14.40;99.90
33717;DHT22;20046;50.746;7.072;2023-09-19T03:52:14;14.40;99.90
33717;DHT22;20046;50.746;7.072;2023-09-19T03:54:41;14.40;99.90
33717;DHT22;20046;50.746;7.072;2023-09-19T03:57:07;14.40;99.90
33717;DHT22;20046;50.746;7.072;2023-09-19T03:59:32;14.40;99.90
33717;DHT22;20046;50.746;7.072;2023-09-19T04:01:58;14.40;99.90
33717;DHT22;20046;50.746;7.072;2023-09-19T04:04:24;14.40;99.90
33717;DHT22;20046;50.746;7.072;2023-09-19T04:06:53;14.50;99.90
33717;DHT22;20046;50.746;7.072;2023-09-19T04:09:18;14.50;99.90
33717;DHT22;20046;50.746;7.072;2023-09-19T04:11:44;14.50;99.90
33717;DHT22;20046;50.746;7.072;2023-09-19T04:14:10;14.50;99.90
33717;DHT22;20046;50.746;7.072;2023-09-19T04:16:35;14.50;99.90
33717;DHT22;20046;50.746;7.072;2023-09-19T04:19:01;14.50;99.90
33717;DHT22;20046;50.746;7.072;2023-09-19T04:21:27;14.40;99.90
33717;DHT22;20046;50.746;7.072;2023-09-19T04:23:54;14.40;99.90
33717;DHT22;20046;50.746;7.072;2023-09-19T04:26:20;14.40;99.90
33717;DHT22;20046;50.746;7.072;2023-09-19T04:28:47;14.30;99.90
33717;DHT22;20046;50.746;7.072;2023-09-19T04:31:12;14.30;99.90
33717;DHT22;20046;50.746;7.072;2023-09-19T04:33:39;14.30;99.90
33717;DHT22;20046;50.746;7.072;2023-09-19T04:36:05;14.30;99.90
33717;DHT22;20046;50.746;7.072;2023-09-19T04:38:33;14.20;99.90
33717;DHT22;20046;50.746;7.072;2023-09-19T04:40:58;14.20;99.90
33717;DHT22;20046;50.746;7.072;2023-09-19T04:43:25;14.20;99.90
33717;DHT22;20046;50.746;7.072;2023-09-19T04:45:50;14.20;99.90
33717;DHT22;20046;50.746;7.072;2023-09-19T04:48:16;14.20;99.90
33717;DHT22;20046;50.746;7.072;2023-09-19T04:50:43;14.20;99.90
33717;DHT22;20046;50.746;7.072;2023-09-19T04:53:09;14.20;99.90
33717;DHT22;20046;50.746;7.072;2023-09-19T04:55:35;14.10;99.90
33717;DHT22;20046;50.746;7.072;2023-09-19T04:58:00;14.10;99.90
33717;DHT22;20046;50.746;7.072;2023-09-19T05:00:26;14.10;99.90
33717;DHT22;20046;50.746;7.072;2023-09-19T05:02:55;14.10;99.90
33717;DHT22;20046;50.746;7.072;2023-09-19T05:05:24;14.10;99.90
33717;DHT22;20046;50.746;7.072;2023-09-19T05:07:51;14.10;99.90
33717;DHT22;20046;50.746;7.072;2023-09-19T05:10:19;14.10;99.90
33717;DHT22;20046;50.746;7.072;2023-09-19T05:12:45;14.10;99.90
33717;DHT22;20046;50.746;7.072;2023-09-19T05:15:13;14.00;99.90
33717;DHT22;20046;50.746;7.072;2023-09-19T05:17:51;14.00;99.90
33717;DHT22;20046;50.746;7.072;2023-09-19T05:20:20;14.00;99.90
33717;DHT22;20046;50.746;7.072;2023-09-19T05:23:11;14.00;99.90
33717;DHT22;20046;50.746;7.072;2023-09-19T05:25:38;14.00;99.90
33717;DHT22;20046;50.746;7.072;2023-09-19T05:28:09;14.00;99.90
33717;DHT22;20046;50.746;7.072;2023-09-19T05:30:36;14.00;99.90
33717;DHT22;20046;50.746;7.072;2023-09-19T05:33:04;14.00;99.90
33717;DHT22;20046;50.746;7.072;2023-09-19T05:35:30;14.00;99.90
33717;DHT22;20046;50.746;7.072;2023-09-19T05:37:56;14.00;99.90
33717;DHT22;20046;50.746;7.072;2023-09-19T05:40:23;14.00;99.90
33717;DHT22;20046;50.746;7.072;2023-09-19T05:42:49;14.00;99.90
33717;DHT22;20046;50.746;7.072;2023-09-19T05:45:16;14.00;99.90
33717;DHT22;20046;50.746;7.072;2023-09-19T05:47:51;14.00;99.90
33717;DHT22;20046;50.746;7.072;2023-09-19T05:50:21;14.00;99.90
33717;DHT22;20046;50.746;7.072;2023-09-19T05:52:53;14.10;99.90
33717;DHT22;20046;50.746;7.072;2023-09-19T05:55:19;14.10;99.90
33717;DHT22;20046;50.746;7.072;2023-09-19T05:57:50;14.10;99.90
33717;DHT22;20046;50.746;7.072;2023-09-19T06:00:18;14.10;99.90
33717;DHT22;20046;50.746;7.072;2023-09-19T06:02:52;14.10;99.90
33717;DHT22;20046;50.746;7.072;2023-09-19T06:05:18;14.20;99.90
33717;DHT22;20046;50.746;7.072;2023-09-19T06:07:44;14.20;99.90
33717;DHT22;20046;50.746;7.072;2023-09-19T06:10:09;14.30;99.90
33717;DHT22;20046;50.746;7.072;2023-09-19T06:12:39;14.30;99.90
33717;DHT22;20046;50.746;7.072;2023-09-19T06:15:05;14.30;99.90
33717;DHT22;20046;50.746;7.072;2023-09-19T06:17:31;14.50;99.90
33717;DHT22;20046;50.746;7.072;2023-09-19T06:19:57;14.50;99.90
33717;DHT22;20046;50.746;7.072;2023-09-19T06:22:22;14.50;99.90
33717;DHT22;20046;50.746;7.072;2023-09-19T06:24:49;14.60;99.90
33717;DHT22;20046;50.746;7.072;2023-09-19T06:27:15;14.60;99.90
33717;DHT22;20046;50.746;7.072;2023-09-19T06:29:41;14.70;99.90
33717;DHT22;20046;50.746;7.072;2023-09-19T06:32:08;14.80;99.90
33717;DHT22;20046;50.746;7.072;2023-09-19T06:34:34;14.80;99.90
33717;DHT22;20046;50.746;7.072;2023-09-19T06:37:00;14.80;99.90
33717;DHT22;20046;50.746;7.072;2023-09-19T06:39:25;14.90;99.90
33717;DHT22;20046;50.746;7.072;2023-09-19T06:41:51;14.90;99.90
33717;DHT22;20046;50.746;7.072;2023-09-19T06:44:19;15.00;99.90
33717;DHT22;20046;50.746;7.072;2023-09-19T06:46:47;15.00;99.90
33717;DHT22;20046;50.746;7.072;2023-09-19T06:49:15;15.10;99.90
33717;DHT22;20046;50.746;7.072;2023-09-19T06:51:41;15.10;99.90
33717;DHT22;20046;50.746;7.072;2023-09-19T06:54:07;15.20;99.90
33717;DHT22;20046;50.746;7.072;2023-09-19T06:56:33;15.20;99.90
33717;DHT22;20046;50.746;7.072;2023-09-19T06:58:58;15.30;99.90
33717;DHT22;20046;50.746;7.072;2023-09-19T07:01:24;15.40;99.90
33717;DHT22;20046;50.746;7.072;2023-09-19T07:03:50;15.40;99.90
33717;DHT22;20046;50.746;7.072;2023-09-19T07:06:16;15.50;99.90
33717;DHT22;20046;50.746;7.072;2023-09-19T07:08:42;15.70;99.90
33717;DHT22;20046;50.746;7.072;2023-09-19T07:11:09;15.80;99.90
33717;DHT22;20046;50.746;7.072;2023-09-19T07:13:37;16.00;99.90
33717;DHT22;20046;50.746;7.072;2023-09-19T07:16:03;16.10;99.90
33717;DHT22;20046;50.746;7.072;2023-09-19T07:18:29;16.10;99.90
33717;DHT22;20046;50.746;7.072;2023-09-19T07:20:58;16.10;99.90
33717;DHT22;20046;50.746;7.072;2023-09-19T07:23:30;16.20;99.90
33717;DHT22;20046;50.746;7.072;2023-09-19T07:26:00;16.20;99.90
33717;DHT22;20046;50.746;7.072;2023-09-19T07:28:26;16.30;99.90
33717;DHT22;20046;50.746;7.072;2023-09-19T07:30:52;16.30;99.90
33717;DHT22;20046;50.746;7.072;2023-09-19T07:33:18;16.40;99.90
33717;DHT22;20046;50.746;7.072;2023-09-19T07:35:47;16.50;99.90
33717;DHT22;20046;50.746;7.072;2023-09-19T07:38:13;16.60;99.90
33717;DHT22;20046;50.746;7.072;2023-09-19T07:40:39;16.70;99.90
33717;DHT22;20046;50.746;7.072;2023-09-19T07:43:05;16.80;99.90
33717;DHT22;20046;50.746;7.072;2023-09-19T07:45:32;16.90;99.90
33717;DHT22;20046;50.746;7.072;2023-09-19T07:47:58;17.00;99.90
33717;DHT22;20046;50.746;7.072;2023-09-19T07:50:23;17.00;99.90
33717;DHT22;20046;50.746;7.072;2023-09-19T07:52:50;17.10;99.90
33717;DHT22;20046;50.746;7.072;2023-09-19T07:55:19;17.20;99.90
33717;DHT22;20046;50.746;7.072;2023-09-19T07:57:48;17.20;99.90
33717;DHT22;20046;50.746;7.072;2023-09-19T08:00:15;17.40;99.90
33717;DHT22;20046;50.746;7.072;2023-09-19T08:02:41;17.60;99.90
33717;DHT22;20046;50.746;7.072;2023-09-19T08:05:11;17.70;99.90
33717;DHT22;20046;50.746;7.072;2023-09-19T08:07:38;17.90;99.90
33717;DHT22;20046;50.746;7.072;2023-09-19T08:10:05;18.00;99.90
33717;DHT22;20046;50.746;7.072;2023-09-19T08:12:39;18.10;99.90
33717;DHT22;20046;50.746;7.072;2023-09-19T08:15:19;18.30;99.90
33717;DHT22;20046;50.746;7.072;2023-09-19T08:17:45;18.40;99.90
33717;DHT22;20046;50.746;7.072;2023-09-19T08:20:12;18.60;99.90
33717;DHT22;20046;50.746;7.072;2023-09-19T08:22:50;18.70;99.90
33717;DHT22;20046;50.746;7.072;2023-09-19T08:25:18;18.80;99.90
33717;DHT22;20046;50.746;7.072;2023-09-19T08:27:44;18.90;99.90
33717;DHT22;20046;50.746;7.072;2023-09-19T08:30:17;19.00;99.90
33717;DHT22;20046;50.746;7.072;2023-09-19T08:32:58;19.20;99.90
33717;DHT22;20046;50.746;7.072;2023-09-19T08:35:24;19.50;99.90
33717;DHT22;20046;50.746;7.072;2023-09-19T08:37:56;19.80;99.90
33717;DHT22;20046;50.746;7.072;2023-09-19T08:40:30;20.10;99.90
33717;DHT22;20046;50.746;7.072;2023-09-19T08:42:59;20.40;99.90
33717;DHT22;20046;50.746;7.072;2023-09-19T08:45:25;20.40;99.90
33717;DHT22;20046;50.746;7.072;2023-09-19T08:50:35;20.20;99.90
33717;DHT22;20046;50.746;7.072;2023-09-19T08:53:10;20.00;99.90
33717;DHT22;20046;50.746;7.072;2023-09-19T08:55:38;19.90;99.90
33717;DHT22;20046;50.746;7.072;2023-09-19T08:58:10;19.90;99.90
33717;DHT22;20046;50.746;7.072;2023-09-19T09:00:36;20.00;99.90
33717;DHT22;20046;50.746;7.072;2023-09-19T09:03:03;20.00;99.90
33717;DHT22;20046;50.746;7.072;2023-09-19T09:05:30;19.90;99.90
33717;DHT22;20046;50.746;7.072;2023-09-19T09:07:58;19.90;99.90
33717;DHT22;20046;50.746;7.072;2023-09-19T09:10:25;19.90;99.90
33717;DHT22;20046;50.746;7.072;2023-09-19T09:12:54;19.90;99.90
33717;DHT22;20046;50.746;7.072;2023-09-19T09:15:23;19.80;99.90
33717;DHT22;20046;50.746;7.072;2023-09-19T09:17:50;19.70;99.90
33717;DHT22;20046;50.746;7.072;2023-09-19T09:20:18;19.60;99.90
33717;DHT22;20046;50.746;7.072;2023-09-19T09:22:54;19.70;99.90
33717;DHT22;20046;50.746;7.072;2023-09-19T09:25:20;19.70;99.90
33717;DHT22;20046;50.746;7.072;2023-09-19T09:28:07;19.70;99.90
33717;DHT22;20046;50.746;7.072;2023-09-19T09:30:37;19.70;99.90
33717;DHT22;20046;50.746;7.072;2023-09-19T09:33:13;19.60;99.90
33717;DHT22;20046;50.746;7.072;2023-09-19T09:35:50;19.70;99.90
33717;DHT22;20046;50.746;7.072;2023-09-19T09:38:20;19.70;99.90
33717;DHT22;20046;50.746;7.072;2023-09-19T09:40:48;19.70;99.90
33717;DHT22;20046;50.746;7.072;2023-09-19T09:46:11;19.90;99.90
33717;DHT22;20046;50.746;7.072;2023-09-19T09:51:49;20.20;99.90
33717;DHT22;20046;50.746;7.072;2023-09-19T09:54:33;20.40;99.90
33717;DHT22;20046;50.746;7.072;2023-09-19T09:57:07;20.70;99.90
33717;DHT22;20046;50.746;7.072;2023-09-19T09:59:56;21.00;99.90
33717;DHT22;20046;50.746;7.072;2023-09-19T10:02:41;21.00;99.90
33717;DHT22;20046;50.746;7.072;2023-09-19T10:05:15;21.00;99.90
33717;DHT22;20046;50.746;7.072;2023-09-19T10:07:54;21.00;99.90
33717;DHT22;20046;50.746;7.072;2023-09-19T10:10:32;21.00;99.90
33717;DHT22;20046;50.746;7.072;2023-09-19T10:13:05;21.10;99.90
33717;DHT22;20046;50.746;7.072;2023-09-19T10:15:33;20.90;99.90
33717;DHT22;20046;50.746;7.072;2023-09-19T10:18:04;21.10;99.90
33717;DHT22;20046;50.746;7.072;2023-09-19T10:20:33;21.20;99.90
33717;DHT22;20046;50.746;7.072;2023-09-19T10:23:01;21.30;99.90
33717;DHT22;20046;50.746;7.072;2023-09-19T10:25:29;21.30;99.90
33717;DHT22;20046;50.746;7.072;2023-09-19T10:27:57;21.40;99.90
33717;DHT22;20046;50.746;7.072;2023-09-19T10:30:24;21.20;99.90
33717;DHT22;20046;50.746;7.072;2023-09-19T10:32:58;20.90;99.90
33717;DHT22;20046;50.746;7.072;2023-09-19T10:35:25;20.80;99.90
33717;DHT22;20046;50.746;7.072;2023-09-19T10:37:52;20.90;99.90
33717;DHT22;20046;50.746;7.072;2023-09-19T10:40:21;20.90;99.90
33717;DHT22;20046;50.746;7.072;2023-09-19T10:42:52;21.00;99.90
33717;DHT22;20046;50.746;7.072;2023-09-19T10:45:19;21.10;99.90
33717;DHT22;20046;50.746;7.072;2023-09-19T10:47:45;21.10;99.90
33717;DHT22;20046;50.746;7.072;2023-09-19T10:50:20;21.00;99.90
33717;DHT22;20046;50.746;7.072;2023-09-19T10:52:48;20.90;99.90
33717;DHT22;20046;50.746;7.072;2023-09-19T10:55:19;20.90;99.90
33717;DHT22;20046;50.746;7.072;2023-09-19T10:57:47;21.10;99.90
33717;DHT22;20046;50.746;7.072;2023-09-19T11:00:14;21.40;99.90
33717;DHT22;20046;50.746;7.072;2023-09-19T11:06:20;21.90;99.90
33717;DHT22;20046;50.746;7.072;2023-09-19T11:08:59;22.50;99.90
33717;DHT22;20046;50.746;7.072;2023-09-19T11:11:45;22.90;99.90
33717;DHT22;20046;50.746;7.072;2023-09-19T11:30:32;26.20;94.90
33717;DHT22;20046;50.746;7.072;2023-09-19T11:36:08;26.80;92.40
33717;DHT22;20046;50.746;7.072;2023-09-19T11:43:48;28.50;88.00
33717;DHT22;20046;50.746;7.072;2023-09-19T11:46:16;28.50;84.60
33717;DHT22;20046;50.746;7.072;2023-09-19T11:48:48;27.90;84.70
33717;DHT22;20046;50.746;7.072;2023-09-19T11:51:24;28.20;87.00
33717;DHT22;20046;50.746;7.072;2023-09-19T11:53:55;29.20;82.50
33717;DHT22;20046;50.746;7.072;2023-09-19T11:56:22;29.80;80.80
33717;DHT22;20046;50.746;7.072;2023-09-19T11:58:54;30.10;79.00
33717;DHT22;20046;50.746;7.072;2023-09-19T12:01:33;30.50;77.10
33717;DHT22;20046;50.746;7.072;2023-09-19T12:04:02;30.80;75.90
33717;DHT22;20046;50.746;7.072;2023-09-19T12:06:30;30.90;72.10
33717;DHT22;20046;50.746;7.072;2023-09-19T12:08:58;30.90;71.80
33717;DHT22;20046;50.746;7.072;2023-09-19T12:11:29;30.70;70.80
33717;DHT22;20046;50.746;7.072;2023-09-19T12:13:56;30.50;71.00
33717;DHT22;20046;50.746;7.072;2023-09-19T12:16:26;30.60;70.70
33717;DHT22;20046;50.746;7.072;2023-09-19T12:18:56;30.60;70.10
33717;DHT22;20046;50.746;7.072;2023-09-19T12:21:26;30.70;70.70
33717;DHT22;20046;50.746;7.072;2023-09-19T12:26:30;31.90;69.00
33717;DHT22;20046;50.746;7.072;2023-09-19T12:28:59;31.80;66.60
33717;DHT22;20046;50.746;7.072;2023-09-19T12:31:27;31.90;65.40
33717;DHT22;20046;50.746;7.072;2023-09-19T12:33:54;31.30;65.90
33717;DHT22;20046;50.746;7.072;2023-09-19T12:36:24;31.50;65.30
33717;DHT22;20046;50.746;7.072;2023-09-19T12:38:59;31.90;65.00
33717;DHT22;20046;50.746;7.072;2023-09-19T12:41:25;32.40;64.80
33717;DHT22;20046;50.746;7.072;2023-09-19T12:43:53;33.30;64.30
33717;DHT22;20046;50.746;7.072;2023-09-19T12:46:21;33.50;62.10
33717;DHT22;20046;50.746;7.072;2023-09-19T12:49:19;32.70;61.40
33717;DHT22;20046;50.746;7.072;2023-09-19T12:51:46;32.10;62.00
33717;DHT22;20046;50.746;7.072;2023-09-19T12:54:13;31.30;63.10
33717;DHT22;20046;50.746;7.072;2023-09-19T12:56:43;31.40;63.90
33717;DHT22;20046;50.746;7.072;2023-09-19T12:59:13;31.50;63.30
33717;DHT22;20046;50.746;7.072;2023-09-19T13:01:40;31.60;63.30
33717;DHT22;20046;50.746;7.072;2023-09-19T13:04:18;31.90;62.10
33717;DHT22;20046;50.746;7.072;2023-09-19T13:06:45;32.00;62.20
33717;DHT22;20046;50.746;7.072;2023-09-19T13:09:14;32.90;62.30
33717;DHT22;20046;50.746;7.072;2023-09-19T13:11:40;33.20;60.40
33717;DHT22;20046;50.746;7.072;2023-09-19T13:17:04;33.30;59.90
33717;DHT22;20046;50.746;7.072;2023-09-19T13:19:47;32.90;59.60
33717;DHT22;20046;50.746;7.072;2023-09-19T13:22:42;31.60;60.80
33717;DHT22;20046;50.746;7.072;2023-09-19T13:25:09;30.90;61.30
33717;DHT22;20046;50.746;7.072;2023-09-19T13:27:44;30.40;62.70
33717;DHT22;20046;50.746;7.072;2023-09-19T13:30:11;30.00;63.60
33717;DHT22;20046;50.746;7.072;2023-09-19T13:32:36;29.40;64.50
33717;DHT22;20046;50.746;7.072;2023-09-19T13:35:04;28.20;65.80
33717;DHT22;20046;50.746;7.072;2023-09-19T13:37:30;26.50;67.40
33717;DHT22;20046;50.746;7.072;2023-09-19T13:39:56;25.50;70.40
33717;DHT22;20046;50.746;7.072;2023-09-19T13:42:24;25.60;70.80
33717;DHT22;20046;50.746;7.072;2023-09-19T13:44:50;25.80;70.70
33717;DHT22;20046;50.746;7.072;2023-09-19T13:47:16;25.90;71.30
33717;DHT22;20046;50.746;7.072;2023-09-19T13:49:50;26.10;71.00
33717;DHT22;20046;50.746;7.072;2023-09-19T13:52:21;27.20;70.20
33717;DHT22;20046;50.746;7.072;2023-09-19T13:54:49;28.10;68.70
33717;DHT22;20046;50.746;7.072;2023-09-19T13:57:15;29.40;66.60
33717;DHT22;20046;50.746;7.072;2023-09-19T13:59:42;30.50;65.30
33717;DHT22;20046;50.746;7.072;2023-09-19T14:02:07;31.40;63.80
33717;DHT22;20046;50.746;7.072;2023-09-19T14:04:33;31.90;62.90
33717;DHT22;20046;50.746;7.072;2023-09-19T14:07:02;32.30;62.50
33717;DHT22;20046;50.746;7.072;2023-09-19T14:09:27;31.90;61.30
33717;DHT22;20046;50.746;7.072;2023-09-19T14:11:53;32.00;61.40
33717;DHT22;20046;50.746;7.072;2023-09-19T14:14:19;31.90;62.00
33717;DHT22;20046;50.746;7.072;2023-09-19T14:16:47;31.40;61.70
33717;DHT22;20046;50.746;7.072;2023-09-19T14:19:13;31.10;62.00
33717;DHT22;20046;50.746;7.072;2023-09-19T14:21:40;31.00;62.30
33717;DHT22;20046;50.746;7.072;2023-09-19T14:24:06;31.00;62.90
33717;DHT22;20046;50.746;7.072;2023-09-19T14:26:35;30.90;62.60
33717;DHT22;20046;50.746;7.072;2023-09-19T14:29:01;30.50;62.70
33717;DHT22;20046;50.746;7.072;2023-09-19T14:31:27;30.10;63.00
33717;DHT22;20046;50.746;7.072;2023-09-19T14:33:57;30.00;64.50
33717;DHT22;20046;50.746;7.072;2023-09-19T14:36:24;29.70;65.20
33717;DHT22;20046;50.746;7.072;2023-09-19T14:38:53;29.40;66.30
33717;DHT22;20046;50.746;7.072;2023-09-19T14:41:22;28.70;67.30
33717;DHT22;20046;50.746;7.072;2023-09-19T14:43:49;27.20;67.60
33717;DHT22;20046;50.746;7.072;2023-09-19T14:46:14;26.00;70.10
33717;DHT22;20046;50.746;7.072;2023-09-19T14:48:41;25.20;71.20
33717;DHT22;20046;50.746;7.072;2023-09-19T14:51:08;24.70;73.30
33717;DHT22;20046;50.746;7.072;2023-09-19T14:53:35;24.50;72.90
33717;DHT22;20046;50.746;7.072;2023-09-19T14:56:03;24.40;72.80
33717;DHT22;20046;50.746;7.072;2023-09-19T14:58:30;24.30;73.40
33717;DHT22;20046;50.746;7.072;2023-09-19T15:01:09;23.90;73.60
33717;DHT22;20046;50.746;7.072;2023-09-19T15:03:39;23.70;74.40
33717;DHT22;20046;50.746;7.072;2023-09-19T15:06:07;23.50;74.90
33717;DHT22;20046;50.746;7.072;2023-09-19T15:08:35;23.40;75.50
33717;DHT22;20046;50.746;7.072;2023-09-19T15:11:09;23.30;75.70
33717;DHT22;20046;50.746;7.072;2023-09-19T15:13:36;23.10;76.20
33717;DHT22;20046;50.746;7.072;2023-09-19T15:16:03;22.90;76.80
33717;DHT22;20046;50.746;7.072;2023-09-19T15:18:29;22.70;77.20
33717;DHT22;20046;50.746;7.072;2023-09-19T15:21:03;22.70;78.30
33717;DHT22;20046;50.746;7.072;2023-09-19T15:23:32;22.70;78.10
33717;DHT22;20046;50.746;7.072;2023-09-19T15:26:03;22.80;78.20
33717;DHT22;20046;50.746;7.072;2023-09-19T15:28:29;22.80;77.80
33717;DHT22;20046;50.746;7.072;2023-09-19T15:31:10;22.70;78.20
33717;DHT22;20046;50.746;7.072;2023-09-19T15:33:36;22.80;78.50
33717;DHT22;20046;50.746;7.072;2023-09-19T15:38:31;23.00;78.50
33717;DHT22;20046;50.746;7.072;2023-09-19T15:40:58;23.10;79.30
33717;DHT22;20046;50.746;7.072;2023-09-19T15:43:23;23.10;79.00
33717;DHT22;20046;50.746;7.072;2023-09-19T15:45:49;23.10;79.10
33717;DHT22;20046;50.746;7.072;2023-09-19T15:48:15;22.80;78.20
33717;DHT22;20046;50.746;7.072;2023-09-19T15:50:42;22.50;79.80
33717;DHT22;20046;50.746;7.072;2023-09-19T15:53:09;22.20;80.20
33717;DHT22;20046;50.746;7.072;2023-09-19T15:55:38;22.00;80.50
33717;DHT22;20046;50.746;7.072;2023-09-19T15:58:05;21.90;81.10
33717;DHT22;20046;50.746;7.072;2023-09-19T16:00:32;21.90;81.50
33717;DHT22;20046;50.746;7.072;2023-09-19T16:03:00;21.80;81.30
33717;DHT22;20046;50.746;7.072;2023-09-19T16:05:26;21.70;81.80
33717;DHT22;20046;50.746;7.072;2023-09-19T16:07:52;21.70;81.90
33717;DHT22;20046;50.746;7.072;2023-09-19T16:10:18;21.60;82.60
33717;DHT22;20046;50.746;7.072;2023-09-19T16:12:43;21.60;82.90
33717;DHT22;20046;50.746;7.072;2023-09-19T16:15:09;21.50;83.60
33717;DHT22;20046;50.746;7.072;2023-09-19T16:17:40;21.50;83.90
33717;DHT22;20046;50.746;7.072;2023-09-19T16:20:06;21.40;84.10
33717;DHT22;20046;50.746;7.072;2023-09-19T16:22:41;21.30;84.30
33717;DHT22;20046;50.746;7.072;2023-09-19T16:25:07;21.30;84.60
33717;DHT22;20046;50.746;7.072;2023-09-19T16:27:32;21.30;84.90
33717;DHT22;20046;50.746;7.072;2023-09-19T16:29:58;21.20;85.30
33717;DHT22;20046;50.746;7.072;2023-09-19T16:32:23;21.20;85.50
33717;DHT22;20046;50.746;7.072;2023-09-19T16:34:49;21.20;85.50
33717;DHT22;20046;50.746;7.072;2023-09-19T16:37:14;21.20;85.70
33717;DHT22;20046;50.746;7.072;2023-09-19T16:39:40;21.10;85.90